Time;durP1;ratioP1;P1;durP2;ratioP2;P2;SDS_P1;SDS_P2;PMS_P1;PMS_P2;Temp;Humidity;BMP_temperature;BMP_pressure;BME280_temperature;BME280_humidity;BME280_pressure;Samples;Min_cycle;Max_cycle;Signal;HPM_P1;HPM_P2
2022/06/21 00:00:05;;;;;;;361.77;247.37;;;;;;;22.07;70.34;99106.09;408065;24;1342;-80
2022/06/21 00:00:18;;;;;;;364.83;250.48;;;;;;;22.06;70.45;99098.25;411703;24;1665;-80
2022/06/21 00:00:29;;;;;;;366.05;248.75;;;;;;;22.04;70.51;99100.22;413681;23;1083;-80
2022/06/21 00:00:39;;;;;;;365.48;245.77;;;;;;;22.03;70.52;99104.72;409876;24;837;-80
2022/06/21 00:00:50;;;;;;;367.17;246.10;;;;;;;22.00;70.58;99096.13;409718;24;1177;-80
2022/06/21 00:01:00;;;;;;;366.33;245.10;;;;;;;21.99;70.71;99097.97;409903;24;822;-80
2022/06/21 00:01:12;;;;;;;365.40;245.67;;;;;;;21.96;71.12;99098.25;411332;24;1273;-80
2022/06/21 00:01:22;;;;;;;368.75;248.07;;;;;;;21.98;70.79;99101.63;409881;24;1330;-80
2022/06/21 00:01:33;;;;;;;368.60;247.87;;;;;;;21.98;70.95;99104.28;407884;24;1284;-80
2022/06/21 00:01:43;;;;;;;372.98;249.27;;;;;;;21.97;70.97;99101.75;411596;24;1407;-80
2022/06/21 00:01:54;;;;;;;372.20;247.80;;;;;;;21.98;70.83;99106.94;409771;24;1262;-80
2022/06/21 00:02:04;;;;;;;373.58;250.18;;;;;;;21.95;71.22;99107.25;407909;24;1483;-80
2022/06/21 00:02:14;;;;;;;373.20;249.73;;;;;;;21.96;71.04;99108.09;408023;24;810;-80
2022/06/21 00:02:25;;;;;;;372.50;249.98;;;;;;;21.92;70.92;99102.22;407973;24;1352;-80
2022/06/21 00:02:35;;;;;;;372.20;248.53;;;;;;;21.90;71.03;99099.69;411755;24;1255;-80
2022/06/21 00:02:46;;;;;;;371.30;251.10;;;;;;;21.92;71.20;99104.88;408467;24;1035;-80
2022/06/21 00:03:09;;;;;;;368.30;247.93;;;;;;;21.92;70.91;99103.03;409408;24;1226;-80
2022/06/21 00:03:23;;;;;;;360.42;239.45;;;;;;;21.88;70.87;99106.16;407566;24;855;-80
2022/06/21 00:03:33;;;;;;;362.30;238.98;;;;;;;21.90;71.02;99109.50;409520;24;1365;-80
2022/06/21 00:03:44;;;;;;;366.10;245.65;;;;;;;21.86;70.80;99103.63;409726;24;1275;-80
2022/06/21 00:03:55;;;;;;;370.17;248.23;;;;;;;21.84;70.92;99104.75;409721;24;854;-80
2022/06/21 00:04:05;;;;;;;368.33;247.30;;;;;;;21.83;71.05;99105.75;411675;24;1231;-80
2022/06/21 00:04:16;;;;;;;366.95;244.07;;;;;;;21.81;70.48;99097.06;409910;24;858;-80
2022/06/21 00:04:26;;;;;;;366.47;243.03;;;;;;;21.82;70.23;99101.41;408116;24;1016;-80
2022/06/21 00:04:37;;;;;;;365.98;244.35;;;;;;;21.79;70.52;99104.34;410246;24;1391;-80
2022/06/21 00:04:47;;;;;;;365.87;244.63;;;;;;;21.79;70.27;99097.22;407804;24;1287;-80
2022/06/21 00:04:57;;;;;;;365.33;246.50;;;;;;;21.80;70.01;99103.38;411828;24;791;-80
2022/06/21 00:05:27;;;;;;;369.10;251.53;;;;;;;21.71;69.68;99105.09;407802;24;1271;-79
2022/06/21 00:05:40;;;;;;;358.60;239.32;;;;;;;21.71;69.56;99101.59;407769;24;847;-79
2022/06/21 00:05:51;;;;;;;360.73;244.25;;;;;;;21.71;69.52;99098.91;410635;24;1272;-79
2022/06/21 00:06:01;;;;;;;360.52;247.02;;;;;;;21.71;69.18;99097.09;411340;24;1247;-79
2022/06/21 00:06:12;;;;;;;366.33;252.50;;;;;;;21.71;69.06;99098.91;409654;24;1259;-79
2022/06/21 00:06:24;;;;;;;369.88;253.77;;;;;;;21.70;69.14;99103.41;407870;24;1222;-79
2022/06/21 00:06:34;;;;;;;372.33;250.88;;;;;;;21.73;68.67;99102.28;409339;24;1289;-79
2022/06/21 00:06:44;;;;;;;370.67;246.10;;;;;;;21.74;69.08;99103.97;411685;24;850;-79
2022/06/21 00:06:56;;;;;;;373.20;249.07;;;;;;;21.74;68.71;99095.97;411579;24;1912;-79
2022/06/21 00:07:11;;;;;;;372.58;250.45;;;;;;;21.71;68.62;99094.44;410282;24;1033;-79
2022/06/21 00:07:23;;;;;;;367.60;246.13;;;;;;;21.71;68.36;99104.25;407846;24;1002;-79
2022/06/21 00:07:33;;;;;;;366.52;242.90;;;;;;;21.69;68.28;99103.53;411788;24;834;-79
2022/06/21 00:07:44;;;;;;;369.37;249.53;;;;;;;21.72;68.32;99108.59;413656;23;747;-79
2022/06/21 00:07:56;;;;;;;365.95;246.75;;;;;;;21.69;68.22;99100.88;412323;24;771;-79
2022/06/21 00:08:11;;;;;;;366.67;247.25;;;;;;;21.68;68.49;99099.22;409727;24;1348;-79
2022/06/21 00:08:28;;;;;;;366.13;240.70;;;;;;;21.70;67.99;99100.75;407829;24;871;-79
2022/06/21 00:08:39;;;;;;;366.92;239.38;;;;;;;21.68;68.03;99109.88;411373;24;842;-79
2022/06/21 00:08:49;;;;;;;365.90;243.35;;;;;;;21.69;68.19;99107.06;411736;24;1297;-79
2022/06/21 00:09:00;;;;;;;366.10;246.53;;;;;;;21.67;67.99;99102.84;409893;24;1080;-79
2022/06/21 00:09:13;;;;;;;366.97;249.53;;;;;;;21.68;67.73;99107.19;409745;24;822;-79
2022/06/21 00:09:23;;;;;;;360.83;242.60;;;;;;;21.64;67.78;99108.50;408011;24;822;-79
2022/06/21 00:09:34;;;;;;;360.70;241.45;;;;;;;21.65;67.52;99107.53;408061;24;1200;-79
2022/06/21 00:09:44;;;;;;;365.07;246.13;;;;;;;21.62;67.67;99105.16;408827;24;1021;-79
2022/06/21 00:09:55;;;;;;;366.98;248.52;;;;;;;21.63;67.78;99117.47;408144;24;1191;-79
2022/06/21 00:10:06;;;;;;;365.73;243.83;;;;;;;21.63;68.13;99114.81;413660;23;1203;-79
2022/06/21 00:10:18;;;;;;;365.70;244.70;;;;;;;21.62;67.62;99115.78;411732;24;1334;-79
2022/06/21 00:10:34;;;;;;;364.55;246.98;;;;;;;21.58;67.28;99108.09;410292;24;1386;-79
2022/06/21 00:10:45;;;;;;;362.83;246.88;;;;;;;21.57;67.46;99109.06;409763;24;1273;-79
2022/06/21 00:10:55;;;;;;;363.52;247.23;;;;;;;21.59;67.64;99108.94;411685;24;1404;-79
2022/06/21 00:11:30;;;;;;;363.95;248.15;;;;;;;21.54;67.74;99109.38;409703;24;862;-79
2022/06/21 00:11:40;;;;;;;359.17;240.27;;;;;;;21.55;67.94;99103.06;407823;24;906;-79
2022/06/21 00:11:51;;;;;;;360.97;242.03;;;;;;;21.56;67.59;99118.06;407827;24;1268;-79
2022/06/21 00:12:01;;;;;;;362.33;244.05;;;;;;;21.56;67.42;99112.72;405907;24;1205;-79
2022/06/21 00:12:12;;;;;;;364.30;245.50;;;;;;;21.57;67.41;99114.41;406097;24;1301;-79
2022/06/21 00:12:22;;;;;;;362.60;242.43;;;;;;;21.55;67.24;99103.06;408715;24;1051;-79
2022/06/21 00:12:33;;;;;;;363.47;244.17;;;;;;;21.55;67.39;99113.72;408048;24;790;-79
2022/06/21 00:12:43;;;;;;;361.48;242.65;;;;;;;21.57;67.67;99119.72;411546;24;1328;-79
2022/06/21 00:12:54;;;;;;;363.07;244.17;;;;;;;21.56;67.28;99111.88;411738;24;770;-79
2022/06/21 00:13:09;;;;;;;365.38;244.45;;;;;;;21.60;67.29;99115.09;410006;24;1327;-79
2022/06/21 00:13:40;;;;;;;368.48;247.82;;;;;;;21.61;67.43;99114.97;409925;24;1416;-79
2022/06/21 00:13:50;;;;;;;364.80;246.40;;;;;;;21.61;67.24;99114.97;409523;24;1157;-79
2022/06/21 00:14:01;;;;;;;365.27;242.53;;;;;;;21.56;67.14;99112.72;407625;24;1275;-79
2022/06/21 00:14:11;;;;;;;364.52;244.70;;;;;;;21.56;68.06;99118.06;407874;24;1222;-79
2022/06/21 00:14:21;;;;;;;366.47;246.47;;;;;;;21.57;67.82;99111.75;407927;24;1230;-79
2022/06/21 00:14:32;;;;;;;367.92;251.77;;;;;;;21.58;67.58;99113.41;411698;24;1367;-79
2022/06/21 00:14:42;;;;;;;366.43;249.67;;;;;;;21.61;67.70;99114.13;409790;24;1183;-79
2022/06/21 00:14:53;;;;;;;363.50;247.57;;;;;;;21.58;67.67;99115.25;412259;24;1287;-79
2022/06/21 00:15:03;;;;;;;362.90;249.83;;;;;;;21.59;67.83;99116.94;409341;24;1377;-80
2022/06/21 00:15:14;;;;;;;366.02;252.60;;;;;;;21.54;67.42;99112.03;411610;24;1274;-80
2022/06/21 00:15:24;;;;;;;372.33;255.83;;;;;;;21.56;67.88;99120.72;411774;24;1178;-80
2022/06/21 00:15:35;;;;;;;372.05;253.43;;;;;;;21.58;67.48;99120.56;409747;24;1271;-80
2022/06/21 00:15:46;;;;;;;370.30;252.13;;;;;;;21.57;67.93;99117.06;410385;24;870;-80
2022/06/21 00:15:58;;;;;;;365.55;248.73;;;;;;;21.55;67.72;99121.69;411851;24;1263;-80
2022/06/21 00:16:11;;;;;;;363.63;246.50;;;;;;;21.57;67.53;99119.72;413371;23;1347;-80
2022/06/21 00:16:22;;;;;;;362.20;243.23;;;;;;;21.57;67.69;99114.41;409865;24;1350;-80
2022/06/21 00:16:33;;;;;;;363.38;243.77;;;;;;;21.57;67.35;99114.41;409716;24;1278;-80
2022/06/21 00:16:43;;;;;;;364.00;242.67;;;;;;;21.55;67.71;99115.53;409692;24;760;-80
2022/06/21 00:16:53;;;;;;;366.10;244.55;;;;;;;21.48;67.78;99109.09;411462;24;1403;-80
2022/06/21 00:17:04;;;;;;;368.90;247.87;;;;;;;21.49;68.04;99119.59;409559;24;1177;-80
2022/06/21 00:17:16;;;;;;;370.00;250.63;;;;;;;21.50;67.79;99110.63;411562;24;1169;-80
2022/06/21 00:17:27;;;;;;;370.48;253.32;;;;;;;21.52;68.33;99119.31;407895;24;1384;-80
2022/06/21 00:17:39;;;;;;;369.42;253.57;;;;;;;21.48;68.17;99109.94;410638;24;854;-80
2022/06/21 00:17:49;;;;;;;370.50;250.00;;;;;;;21.44;68.39;99105.88;407853;24;1478;-80
2022/06/21 00:18:00;;;;;;;366.33;244.63;;;;;;;21.41;68.50;99108.84;408435;24;1305;-79
2022/06/21 00:18:14;;;;;;;366.17;243.20;;;;;;;21.43;68.81;99119.34;409865;24;1365;-79
2022/06/21 00:18:25;;;;;;;363.40;242.00;;;;;;;21.39;68.68;99118.78;410092;24;1052;-79
2022/06/21 00:18:37;;;;;;;362.83;244.45;;;;;;;21.38;68.55;99119.75;409764;24;1236;-79
2022/06/21 00:18:47;;;;;;;366.35;248.20;;;;;;;21.37;68.88;99117.25;411771;24;1255;-79
2022/06/21 00:18:58;;;;;;;365.52;248.43;;;;;;;21.36;68.70;99116.41;409465;24;1307;-79
2022/06/21 00:19:12;;;;;;;364.52;242.95;;;;;;;21.36;68.79;99121.72;407756;24;1324;-79
2022/06/21 00:19:24;;;;;;;361.65;239.98;;;;;;;21.35;68.94;99114.72;409851;24;1092;-79
2022/06/21 00:19:37;;;;;;;363.70;243.88;;;;;;;21.36;68.78;99115.56;409620;24;1359;-79
2022/06/21 00:19:48;;;;;;;360.95;241.65;;;;;;;21.36;68.96;99121.72;411491;24;1388;-79
2022/06/21 00:19:58;;;;;;;363.50;240.00;;;;;;;21.34;69.03;99123.69;409675;24;1256;-79
2022/06/21 00:20:13;;;;;;;362.13;239.27;;;;;;;21.35;68.98;99119.22;408477;24;1140;-79
2022/06/21 00:20:24;;;;;;;359.23;240.25;;;;;;;21.35;69.23;99120.06;408250;24;870;-79
2022/06/21 00:20:34;;;;;;;359.98;243.10;;;;;;;21.35;69.27;99122.72;408132;24;948;-79
2022/06/21 00:20:45;;;;;;;362.53;243.70;;;;;;;21.37;69.21;99119.91;409929;24;805;-79
2022/06/21 00:20:55;;;;;;;367.08;246.93;;;;;;;21.37;69.07;99118.09;410461;24;762;-79
2022/06/21 00:21:10;;;;;;;367.60;246.90;;;;;;;21.36;68.93;99116.41;408087;24;909;-79
2022/06/21 00:21:24;;;;;;;363.40;243.18;;;;;;;21.39;69.24;99121.44;409918;24;988;-79
2022/06/21 00:21:36;;;;;;;365.88;242.95;;;;;;;21.36;69.24;99105.75;409908;24;869;-79
2022/06/21 00:21:47;;;;;;;369.95;248.77;;;;;;;21.36;68.79;99111.09;409738;24;866;-79
2022/06/21 00:21:57;;;;;;;369.43;247.03;;;;;;;21.39;69.08;99116.13;411718;24;1182;-79
2022/06/21 00:22:16;;;;;;;368.58;246.57;;;;;;;21.41;68.96;99114.16;407803;24;1276;-79
2022/06/21 00:22:26;;;;;;;362.00;242.80;;;;;;;21.39;68.91;99110.78;407580;24;1500;-79
2022/06/21 00:22:36;;;;;;;363.10;246.07;;;;;;;21.36;69.18;99116.41;406062;24;775;-79
2022/06/21 00:22:48;;;;;;;368.00;245.93;;;;;;;21.41;69.17;99114.16;408260;24;1162;-79
2022/06/21 00:22:59;;;;;;;369.30;249.45;;;;;;;21.40;69.03;99116.97;410052;24;1379;-79
2022/06/21 00:23:13;;;;;;;366.70;247.80;;;;;;;21.41;69.20;99116.81;410096;24;1349;-79
2022/06/21 00:23:25;;;;;;;363.02;244.43;;;;;;;21.43;68.73;99116.69;412156;24;849;-79
2022/06/21 00:23:35;;;;;;;362.23;240.32;;;;;;;21.40;69.20;99107.16;406152;24;1377;-79
2022/06/21 00:23:47;;;;;;;365.33;238.30;;;;;;;21.40;68.95;99115.13;407852;24;847;-79
2022/06/21 00:23:57;;;;;;;366.02;242.65;;;;;;;21.38;69.25;99114.44;409735;24;1396;-79
2022/06/21 00:24:09;;;;;;;368.67;246.70;;;;;;;21.38;69.05;99114.44;409333;24;854;-79
2022/06/21 00:24:20;;;;;;;370.98;250.50;;;;;;;21.39;69.31;99110.78;409280;24;1454;-79
2022/06/21 00:24:30;;;;;;;373.63;252.82;;;;;;;21.38;69.35;99106.44;413832;23;778;-79
2022/06/21 00:24:41;;;;;;;376.77;252.37;;;;;;;21.40;69.11;99112.47;413683;23;765;-79
2022/06/21 00:24:51;;;;;;;374.13;251.13;;;;;;;21.40;68.88;99112.47;411694;24;1310;-79
2022/06/21 00:25:31;;;;;;;375.43;254.27;;;;;;;21.40;69.33;99107.16;407839;24;1248;-79
2022/06/21 00:25:42;;;;;;;361.40;239.68;;;;;;;21.40;69.16;99112.47;403261;24;1042;-79
2022/06/21 00:25:52;;;;;;;361.42;240.75;;;;;;;21.40;69.16;99107.16;409950;24;1448;-79
2022/06/21 00:26:03;;;;;;;364.67;242.43;;;;;;;21.40;69.54;99108.97;412191;24;806;-79
2022/06/21 00:26:14;;;;;;;364.33;244.02;;;;;;;21.40;69.23;99117.81;413630;23;1314;-79
2022/06/21 00:26:26;;;;;;;364.73;243.10;;;;;;;21.38;69.55;99110.94;409771;24;1277;-79
2022/06/21 00:26:36;;;;;;;367.77;247.45;;;;;;;21.35;69.09;99111.22;412061;24;1074;-79
2022/06/21 00:26:47;;;;;;;368.90;245.07;;;;;;;21.39;69.60;99116.13;411714;24;1312;-79
2022/06/21 00:26:57;;;;;;;369.70;249.20;;;;;;;21.40;69.50;99112.47;411495;24;1913;-79
2022/06/21 00:27:16;;;;;;;368.90;248.03;;;;;;;21.37;69.39;99115.44;409833;24;1187;-79
2022/06/21 00:27:27;;;;;;;365.08;243.40;;;;;;;21.39;69.27;99113.47;413529;23;1086;-79
2022/06/21 00:27:37;;;;;;;362.03;240.43;;;;;;;21.34;69.55;99105.06;409457;24;1314;-79
2022/06/21 00:27:48;;;;;;;362.05;242.13;;;;;;;21.36;69.36;99110.25;411583;24;1300;-79
2022/06/21 00:27:58;;;;;;;363.13;243.23;;;;;;;21.34;69.65;99115.72;409767;24;1318;-79
2022/06/21 00:28:09;;;;;;;364.42;244.95;;;;;;;21.35;69.66;99111.22;408771;24;1211;-79
2022/06/21 00:28:20;;;;;;;363.08;239.63;;;;;;;21.34;69.76;99113.03;407845;24;1386;-79
2022/06/21 00:28:30;;;;;;;363.88;238.90;;;;;;;21.30;69.78;99111.66;406111;24;831;-79
2022/06/21 00:28:41;;;;;;;366.00;238.87;;;;;;;21.34;69.77;99118.38;408469;24;1174;-79
2022/06/21 00:28:51;;;;;;;366.60;242.05;;;;;;;21.34;69.38;99112.22;409800;24;1294;-79
2022/06/21 00:29:02;;;;;;;367.73;241.10;;;;;;;21.32;69.63;99115.00;409890;24;1336;-79
2022/06/21 00:29:12;;;;;;;366.77;240.63;;;;;;;21.35;69.39;99114.72;409865;24;976;-79
2022/06/21 00:29:23;;;;;;;368.02;239.90;;;;;;;21.33;69.77;99110.53;411696;24;1304;-79
2022/06/21 00:29:33;;;;;;;368.57;242.63;;;;;;;21.33;69.38;99116.69;411943;23;1284;-79
2022/06/21 00:29:43;;;;;;;368.95;244.50;;;;;;;21.33;69.65;99110.53;411507;24;1202;-79
2022/06/21 00:29:54;;;;;;;366.97;246.87;;;;;;;21.32;69.68;99108.84;409915;24;893;-79
2022/06/21 00:30:05;;;;;;;367.90;244.07;;;;;;;21.34;69.84;99107.72;409904;24;1443;-79
2022/06/21 00:30:16;;;;;;;370.20;245.40;;;;;;;21.30;69.47;99111.66;409829;24;1352;-79
2022/06/21 00:30:27;;;;;;;375.15;244.65;;;;;;;21.33;69.68;99116.69;411668;24;1394;-80
2022/06/21 00:30:39;;;;;;;374.45;251.48;;;;;;;21.31;69.96;99107.16;412143;24;870;-80
2022/06/21 00:30:50;;;;;;;372.17;249.18;;;;;;;21.31;69.81;99117.81;412760;24;1305;-80
2022/06/21 00:31:01;;;;;;;372.77;248.18;;;;;;;21.28;69.93;99118.09;411903;24;1389;-80
2022/06/21 00:31:21;;;;;;;368.55;243.57;;;;;;;21.32;69.93;99109.69;410047;24;1344;-80
2022/06/21 00:31:34;;;;;;;359.75;240.52;;;;;;;21.29;69.74;99117.97;411835;24;1291;-80
2022/06/21 00:31:46;;;;;;;360.80;243.32;;;;;;;21.31;69.88;99116.00;410136;24;879;-80
2022/06/21 00:31:56;;;;;;;364.67;243.80;;;;;;;21.29;69.97;99114.47;407766;24;1353;-80
2022/06/21 00:32:19;;;;;;;364.55;245.45;;;;;;;21.29;69.96;99104.66;409990;24;1275;-80
2022/06/21 00:32:29;;;;;;;361.20;244.15;;;;;;;21.28;69.64;99116.28;409919;24;1444;-80
2022/06/21 00:32:40;;;;;;;365.23;244.07;;;;;;;21.29;70.07;99115.28;411720;24;1197;-80
2022/06/21 00:32:52;;;;;;;363.83;241.55;;;;;;;21.26;70.41;99120.91;413670;23;1510;-80
2022/06/21 00:33:02;;;;;;;364.27;242.80;;;;;;;21.25;70.18;99120.06;409793;24;1247;-80
2022/06/21 00:33:14;;;;;;;365.02;245.77;;;;;;;21.27;69.97;99122.59;407934;24;1270;-80
2022/06/21 00:33:25;;;;;;;370.02;252.13;;;;;;;21.25;69.98;99119.22;406195;24;1352;-80
2022/06/21 00:33:35;;;;;;;369.20;249.43;;;;;;;21.25;70.34;99119.22;409586;24;1310;-80
2022/06/21 00:33:46;;;;;;;374.00;247.35;;;;;;;21.22;70.21;99111.56;410237;24;1222;-80
2022/06/21 00:33:56;;;;;;;373.70;243.83;;;;;;;21.22;70.51;99120.38;408107;24;1172;-80
2022/06/21 00:34:12;;;;;;;373.08;242.85;;;;;;;21.24;70.32;99117.53;410165;24;841;-80
2022/06/21 00:34:22;;;;;;;365.40;243.85;;;;;;;21.22;70.20;99114.22;410108;24;1317;-80
2022/06/21 00:34:33;;;;;;;366.98;243.75;;;;;;;21.21;70.70;99117.84;408182;24;800;-80
2022/06/21 00:34:43;;;;;;;371.17;246.80;;;;;;;21.22;70.62;99119.53;408192;24;1164;-80
2022/06/21 00:34:54;;;;;;;374.98;248.90;;;;;;;21.20;70.86;99110.81;411675;24;1269;-80
2022/06/21 00:35:09;;;;;;;373.53;248.10;;;;;;;21.16;70.49;99120.06;411931;23;834;-80
2022/06/21 00:35:20;;;;;;;371.45;248.18;;;;;;;21.18;70.97;99118.09;409413;24;1270;-80
2022/06/21 00:35:31;;;;;;;369.45;246.57;;;;;;;21.17;70.88;99117.28;411784;24;1394;-80
2022/06/21 00:35:42;;;;;;;370.77;247.30;;;;;;;21.18;70.88;99113.63;411790;24;1289;-80
2022/06/21 00:35:54;;;;;;;371.27;248.10;;;;;;;21.17;70.81;99116.44;409974;24;1316;-80
2022/06/21 00:36:05;;;;;;;371.40;245.32;;;;;;;21.17;71.21;99113.78;410509;24;1378;-80
2022/06/21 00:36:29;;;;;;;370.13;246.30;;;;;;;21.17;71.17;99117.28;409857;24;1321;-80
2022/06/21 00:36:39;;;;;;;365.65;246.45;;;;;;;21.17;71.02;99119.94;413534;23;1254;-80
2022/06/21 00:36:50;;;;;;;366.23;248.13;;;;;;;21.17;71.04;99111.09;410109;24;1410;-80
2022/06/21 00:37:00;;;;;;;364.50;246.40;;;;;;;21.17;71.47;99113.78;411734;24;1343;-80
2022/06/21 00:37:16;;;;;;;366.63;246.90;;;;;;;21.16;71.12;99120.06;412109;24;854;-80
2022/06/21 00:37:26;;;;;;;364.08;240.98;;;;;;;21.16;71.21;99125.41;409899;24;1441;-80
2022/06/21 00:37:37;;;;;;;363.73;240.77;;;;;;;21.08;71.29;99111.94;407529;24;1349;-80
2022/06/21 00:37:48;;;;;;;366.50;240.20;;;;;;;21.10;71.47;99112.66;407853;24;1272;-80
2022/06/21 00:37:58;;;;;;;366.23;242.25;;;;;;;21.12;71.29;99113.34;408074;24;1214;-80
2022/06/21 00:38:14;;;;;;;368.20;244.63;;;;;;;21.09;71.75;99116.28;409981;24;905;-80
2022/06/21 00:38:33;;;;;;;363.88;241.05;;;;;;;21.04;72.05;99110.56;409747;24;1025;-80
2022/06/21 00:38:43;;;;;;;366.13;246.90;;;;;;;21.06;71.78;99103.28;407760;24;1482;-80
2022/06/21 00:38:54;;;;;;;365.98;246.35;;;;;;;21.09;71.51;99118.94;410189;24;1331;-80
2022/06/21 00:39:05;;;;;;;368.70;248.30;;;;;;;21.07;71.82;99116.44;410670;24;1039;-80
2022/06/21 00:39:17;;;;;;;367.30;246.45;;;;;;;21.07;71.98;99116.44;411883;24;1305;-80
2022/06/21 00:39:27;;;;;;;367.77;248.43;;;;;;;21.09;71.90;99116.28;409911;24;1304;-80
2022/06/21 00:39:37;;;;;;;366.52;246.23;;;;;;;21.07;72.39;99116.44;412011;24;1293;-80
2022/06/21 00:39:48;;;;;;;365.00;243.13;;;;;;;21.09;71.80;99108.31;413896;23;1299;-80
2022/06/21 00:40:00;;;;;;;364.23;240.77;;;;;;;21.09;72.03;99116.28;409708;24;1230;-80
2022/06/21 00:40:35;;;;;;;362.95;239.75;;;;;;;21.06;71.87;99108.59;410214;24;937;-80
2022/06/21 00:40:46;;;;;;;359.17;244.60;;;;;;;21.09;71.97;99111.81;409187;24;1349;-80
2022/06/21 00:40:56;;;;;;;358.57;244.63;;;;;;;21.05;72.09;99112.22;412107;24;886;-80
2022/06/21 00:41:07;;;;;;;361.60;244.85;;;;;;;21.05;72.51;99109.56;410129;24;858;-80
2022/06/21 00:41:19;;;;;;;365.70;243.30;;;;;;;21.02;72.38;99099.22;408384;24;1226;-80
2022/06/21 00:41:38;;;;;;;368.67;243.32;;;;;;;21.05;71.95;99112.22;408078;24;1521;-80
2022/06/21 00:42:00;;;;;;;364.58;244.18;;;;;;;21.06;72.14;99103.28;411853;24;930;-80
2022/06/21 00:42:37;;;;;;;363.65;246.88;;;;;;;21.05;72.58;99106.91;409945;24;849;-80
2022/06/21 00:42:53;;;;;;;364.58;244.32;;;;;;;21.03;72.45;99111.53;407647;24;1280;-80
2022/06/21 00:43:16;;;;;;;366.90;244.65;;;;;;;21.02;72.71;99104.53;409627;24;1482;-80
2022/06/21 00:43:28;;;;;;;361.30;243.27;;;;;;;20.97;72.76;99099.63;408048;24;973;-80
2022/06/21 00:43:41;;;;;;;362.70;243.80;;;;;;;20.99;72.73;99099.50;410061;24;1304;-80
2022/06/21 00:43:51;;;;;;;363.13;240.77;;;;;;;20.98;72.91;99101.31;410272;24;897;-80
2022/06/21 00:44:02;;;;;;;359.65;234.02;;;;;;;20.97;72.75;99099.63;412008;24;842;-80
2022/06/21 00:44:20;;;;;;;362.15;239.27;;;;;;;21.01;72.93;99101.03;410521;24;1276;-80
2022/06/21 00:44:38;;;;;;;360.52;236.93;;;;;;;21.04;72.69;99099.91;410066;24;811;-80
2022/06/21 00:45:06;;;;;;;360.20;236.80;;;;;;;21.06;72.80;99100.59;407877;24;862;-80
2022/06/21 00:45:28;;;;;;;358.77;242.18;;;;;;;21.04;72.88;99105.22;410003;24;1380;-80
2022/06/21 00:45:41;;;;;;;357.20;239.15;;;;;;;21.02;72.91;99101.88;409917;24;1008;-80
2022/06/21 00:45:51;;;;;;;358.02;239.95;;;;;;;21.03;72.46;99106.22;409757;24;1350;-80
2022/06/21 00:46:02;;;;;;;361.67;242.57;;;;;;;21.02;72.90;99100.03;411861;24;972;-80
2022/06/21 00:46:37;;;;;;;367.17;247.83;;;;;;;21.03;72.88;99104.38;411542;24;786;-80
2022/06/21 00:46:51;;;;;;;358.00;234.48;;;;;;;20.98;72.98;99101.31;414042;23;5784;-80
2022/06/21 00:47:05;;;;;;;361.60;239.10;;;;;;;20.96;73.17;99097.09;407910;24;1902;-80
2022/06/21 00:47:31;;;;;;;363.85;242.75;;;;;;;20.93;73.17;99096.41;409740;24;1332;-80
2022/06/21 00:47:44;;;;;;;359.73;246.00;;;;;;;20.93;73.40;99093.75;410037;24;799;-80
2022/06/21 00:47:58;;;;;;;366.23;252.63;;;;;;;20.91;73.09;99093.06;409434;24;1282;-80
2022/06/21 00:48:38;;;;;;;368.23;252.13;;;;;;;20.93;73.21;99093.75;411662;24;1282;-80
2022/06/21 00:48:48;;;;;;;361.88;246.73;;;;;;;20.95;73.47;99100.75;411591;24;1259;-80
2022/06/21 00:48:59;;;;;;;361.60;243.10;;;;;;;20.95;73.26;99090.09;412173;24;791;-80
2022/06/21 00:49:23;;;;;;;362.80;242.15;;;;;;;20.96;73.38;99091.78;412227;24;1315;-80
2022/06/21 00:49:44;;;;;;;360.25;239.38;;;;;;;20.97;73.28;99093.47;410244;24;902;-80
2022/06/21 00:50:20;;;;;;;360.50;238.32;;;;;;;20.98;73.12;99084.50;408152;24;834;-80
2022/06/21 00:50:34;;;;;;;360.08;242.63;;;;;;;20.99;73.56;99095.00;409612;24;1373;-80
2022/06/21 00:50:46;;;;;;;362.75;243.82;;;;;;;20.99;73.22;99081.72;411846;24;1400;-80
2022/06/21 00:51:05;;;;;;;362.20;240.63;;;;;;;20.99;73.53;99086.19;409792;24;775;-80
2022/06/21 00:51:20;;;;;;;357.38;231.23;;;;;;;20.96;73.50;99094.44;409795;24;918;-80
2022/06/21 00:51:41;;;;;;;357.98;231.40;;;;;;;20.93;73.18;99090.25;406354;24;1122;-80
2022/06/21 00:51:57;;;;;;;361.10;237.88;;;;;;;20.95;73.15;99090.09;408953;24;1059;-78
2022/06/21 00:52:14;;;;;;;364.60;242.57;;;;;;;20.96;73.26;99082.00;411788;24;876;-78
2022/06/21 00:52:35;;;;;;;364.02;240.77;;;;;;;20.97;72.85;99082.81;413714;23;909;-78
2022/06/21 00:52:52;;;;;;;359.35;237.05;;;;;;;20.93;73.04;99083.09;413816;23;774;-78
2022/06/21 00:53:21;;;;;;;362.17;242.50;;;;;;;20.94;72.87;99083.94;405910;24;1298;-78
2022/06/21 00:53:43;;;;;;;361.67;240.45;;;;;;;20.92;72.48;99085.91;407717;24;922;-78
2022/06/21 00:53:56;;;;;;;368.02;242.98;;;;;;;20.92;71.88;99088.56;409358;24;5589;-78
2022/06/21 00:54:12;;;;;;;365.85;238.80;;;;;;;20.92;72.09;99085.91;409749;24;4995;-80
2022/06/21 00:54:33;;;;;;;363.90;239.73;;;;;;;20.92;71.28;99089.41;410286;24;759;-80
2022/06/21 00:54:54;;;;;;;361.33;239.43;;;;;;;20.88;71.06;99087.16;409899;24;1267;-80
2022/06/21 00:55:09;;;;;;;356.23;237.20;;;;;;;20.83;71.08;99084.94;413660;23;889;-80
2022/06/21 00:55:35;;;;;;;360.90;242.50;;;;;;;20.83;70.97;99082.25;410193;24;1381;-80
2022/06/21 00:55:51;;;;;;;359.27;237.23;;;;;;;20.84;70.66;99083.09;409681;24;1374;-80
2022/06/21 00:56:06;;;;;;;359.45;236.75;;;;;;;20.88;70.61;99089.81;415811;23;849;-80
2022/06/21 00:56:19;;;;;;;355.55;235.50;;;;;;;20.85;70.63;99082.13;411753;24;1294;-80
2022/06/21 00:56:32;;;;;;;354.73;235.98;;;;;;;20.81;70.22;99089.53;411875;24;1384;-80
2022/06/21 00:57:01;;;;;;;357.73;236.70;;;;;;;20.81;69.65;99078.91;409868;24;1238;-80
2022/06/21 00:57:16;;;;;;;359.02;243.48;;;;;;;20.81;69.85;99084.22;410170;24;1016;-80
2022/06/21 00:57:33;;;;;;;358.33;238.40;;;;;;;20.84;69.75;99083.94;409784;24;1279;-80
2022/06/21 00:57:49;;;;;;;357.25;236.68;;;;;;;20.87;69.94;99083.66;409777;24;1469;-80
2022/06/21 00:57:59;;;;;;;359.67;242.88;;;;;;;20.88;69.83;99089.81;411876;24;1257;-80
2022/06/21 00:58:11;;;;;;;358.57;244.97;;;;;;;20.87;69.60;99089.00;412072;24;1195;-80
2022/06/21 00:58:23;;;;;;;359.23;244.75;;;;;;;20.86;69.90;99092.63;409504;24;1084;-80
2022/06/21 00:58:34;;;;;;;361.77;246.70;;;;;;;20.85;69.74;99084.78;408024;24;1280;-80
2022/06/21 00:58:44;;;;;;;362.50;246.00;;;;;;;20.83;69.82;99084.09;409879;24;1257;-80
2022/06/21 00:58:54;;;;;;;364.60;248.63;;;;;;;20.83;69.81;99084.94;409769;24;1362;-80
2022/06/21 00:59:15;;;;;;;365.37;247.23;;;;;;;20.84;69.89;99089.28;411710;24;1289;-80
2022/06/21 00:59:33;;;;;;;362.38;244.20;;;;;;;20.85;69.92;99085.63;411763;24;1099;-80
2022/06/21 00:59:44;;;;;;;360.70;242.13;;;;;;;20.87;70.01;99089.00;412491;24;987;-80
2022/06/21 00:59:58;;;;;;;359.05;237.15;;;;;;;20.87;69.89;99089.00;411571;24;1309;-80
2022/06/21 01:00:23;;;;;;;360.40;238.30;;;;;;;20.88;69.86;99090.66;411744;24;951;-80
2022/06/21 01:00:37;;;;;;;360.50;244.05;;;;;;;20.87;69.99;99086.31;411871;24;881;-80
2022/06/21 01:01:04;;;;;;;359.35;239.27;;;;;;;20.88;70.20;99084.50;409977;24;830;-80
2022/06/21 01:01:27;;;;;;;358.92;244.35;;;;;;;20.90;70.14;99085.22;409718;24;821;-80
2022/06/21 01:01:37;;;;;;;359.73;241.65;;;;;;;20.87;70.48;99088.16;413500;23;1344;-80
2022/06/21 01:01:48;;;;;;;356.60;237.30;;;;;;;20.86;70.45;99089.13;409885;24;1499;-80
2022/06/21 01:02:04;;;;;;;359.02;241.93;;;;;;;20.87;70.68;99082.81;406230;24;1231;-80
2022/06/21 01:02:27;;;;;;;359.73;241.82;;;;;;;20.87;70.68;99082.81;410554;24;1099;-80